Wan Hai 273 — 9V7586 — position and weather

sailwx.info

Track history (hours):
 
Tides and Currents Weather Stations Pressure Air Temp Water Temp Dewpoint Dewpoint Depression Visibility Wind Speed Wind Dir Waves Ship Positions

Wan Hai 273

Last reported at 2015-May-26 11:33 UTC. Time now 2015-May-28 12:04 UTC.
Position N 34°34' E 139°06'.

Length 172 m; draft 7.4 m.

Type: Cargo ship. MMSI: 566406000.

Date/timePositionNaut miles runAvg speedWind from/ knotsBaromVisibWave heightAir tempDewpointWater temp
2015-May-26 11:33N 34°34' E 139°06'1916.9
2015-May-26 10:25N 34°40' E 139°29'1416.1
2015-May-26 09:33N 34°52' E 139°37'1616.1
2015-May-26 08:33N 35°07' E 139°44'1312.8
2015-May-26 07:33N 35°20' E 139°43'7 7.0
2015-May-26 06:32N 35°27' E 139°41'0 0.0
2015-May-26 05:32N 35°27' E 139°41'0 0.0
2015-May-26 04:32N 35°27' E 139°41'0 0.0
2015-May-26 03:32N 35°27' E 139°41'0 0.0
2015-May-26 02:32N 35°27' E 139°41'0 0.0
2015-May-26 01:32N 35°27' E 139°41'0 0.0
2015-May-26 00:32N 35°27' E 139°41'0 0.0
2015-May-25 23:32N 35°27' E 139°41'0 0.0
2015-May-25 22:33N 35°27' E 139°41'5 5.5
2015-May-25 21:34N 35°27' E 139°47'9 8.8
2015-May-25 20:33N 35°36' E 139°47'1 0.6
2015-May-25 19:32N 35°36' E 139°46'0 0.0
2015-May-25 18:32N 35°36' E 139°46'0 0.0
2015-May-25 17:32N 35°36' E 139°46'0 0.0
2015-May-25 16:32N 35°36' E 139°46'0 0.0
2015-May-25 15:29N 35°36' E 139°46'0 0.0
2015-May-25 14:32N 35°36' E 139°46'0 0.0
2015-May-25 13:23N 35°36' E 139°46'0 0.0
2015-May-25 12:32N 35°36' E 139°46'0 0.0
2015-May-25 11:29N 35°36' E 139°46'0 0.0
2015-May-25 10:29N 35°36' E 139°46'0 0.0
2015-May-25 09:26N 35°36' E 139°46'0 0.0
2015-May-25 08:32N 35°36' E 139°46'0 0.0
2015-May-25 07:14N 35°36' E 139°46'0 0.0
2015-May-25 06:32N 35°36' E 139°46'0 0.0
2015-May-25 05:26N 35°36' E 139°46'0 0.0
2015-May-25 04:26N 35°36' E 139°46'6 7.1
2015-May-25 03:33N 35°32' E 139°52'1313.3
2015-May-25 02:33N 35°20' E 139°45'1211.7
2015-May-25 01:33N 35°09' E 139°46'1612.9
2015-May-25 00:21N 34°58' E 139°33'1316.6
2015-May-24 23:34N 34°50' E 139°20'  
2015-May-21 16:33N 22°07' E 114°22'1713.3
2015-May-21 15:16N 22°16' E 114°06'811.6
2015-May-21 14:33N 22°21' E 113°59'8 7.9
2015-May-21 13:33N 22°27' E 113°54'1 0.6
2015-May-21 12:28N 22°28' E 113°54'0 0.0
2015-May-21 11:28N 22°28' E 113°54'0 0.0
2015-May-21 10:28N 22°28' E 113°54'0 0.0
2015-May-21 09:28N 22°28' E 113°54'0 0.0
2015-May-21 08:28N 22°28' E 113°54'0 0.0
2015-May-21 07:22N 22°28' E 113°54'0 0.0
2015-May-21 06:28N 22°28' E 113°54'0 0.0
2015-May-21 05:22N 22°28' E 113°54'0 0.0
2015-May-21 04:22N 22°28' E 113°54'0 0.0
2015-May-21 03:23N 22°28' E 113°54'4 4.8
2015-May-21 02:33N 22°24' E 113°54'10 7.7
2015-May-21 01:12N 22°21' E 114°05'3 4.2
2015-May-21 00:33N 22°20' E 114°08'0 0.0
2015-May-20 23:33N 22°20' E 114°08'0 0.0
2015-May-20 22:33N 22°20' E 114°08'0 0.0
2015-May-20 21:33N 22°20' E 114°08'0 0.0
2015-May-20 20:30N 22°20' E 114°08'0 0.0
2015-May-20 19:33N 22°20' E 114°08'0 0.0
2015-May-20 18:33N 22°20' E 114°08'0 0.0
2015-May-20 17:30N 22°20' E 114°08'0 0.0
2015-May-20 16:33N 22°20' E 114°08'0 0.0
2015-May-20 15:33N 22°20' E 114°08'0 0.0
2015-May-20 14:33N 22°20' E 114°08'0 0.0
2015-May-20 13:33N 22°20' E 114°08'0 0.0
2015-May-20 12:30N 22°20' E 114°08'0 0.0
2015-May-20 11:30N 22°20' E 114°08'0 0.0
2015-May-20 10:33N 22°20' E 114°08'0 0.0
2015-May-20 09:33N 22°20' E 114°08'2 1.9
2015-May-20 08:33N 22°19' E 114°06'12 9.8
2015-May-20 07:19N 22°09' E 114°14'912.3
2015-May-20 06:33N 22°08' E 114°24'1817.6
2015-May-20 05:30N 21°50' E 114°19'  
Track history (hours):
 
Tides and Currents Weather Stations Pressure Air Temp Water Temp Dewpoint Dewpoint Depression Visibility Wind Speed Wind Dir Waves Ship Positions

Wan Hai 273

Last reported at 2015-May-26 11:33 UTC. Time now 2015-May-28 12:04 UTC.
Position N 34°34' E 139°06'.

Length 172 m; draft 7.4 m.

Type: Cargo ship. MMSI: 566406000.

Date/timePositionNaut miles runAvg speedWind from/ knotsBaromVisibWave heightAir tempDewpointWater temp
2015-May-26 11:33N 34°34' E 139°06'1916.9
2015-May-26 10:25N 34°40' E 139°29'1416.1
2015-May-26 09:33N 34°52' E 139°37'1616.1
2015-May-26 08:33N 35°07' E 139°44'1312.8
2015-May-26 07:33N 35°20' E 139°43'7 7.0
2015-May-26 06:32N 35°27' E 139°41'0 0.0
2015-May-26 05:32N 35°27' E 139°41'0 0.0
2015-May-26 04:32N 35°27' E 139°41'0 0.0
2015-May-26 03:32N 35°27' E 139°41'0 0.0
2015-May-26 02:32N 35°27' E 139°41'0 0.0
2015-May-26 01:32N 35°27' E 139°41'0 0.0
2015-May-26 00:32N 35°27' E 139°41'0 0.0
2015-May-25 23:32N 35°27' E 139°41'0 0.0
2015-May-25 22:33N 35°27' E 139°41'5 5.5
2015-May-25 21:34N 35°27' E 139°47'9 8.8
2015-May-25 20:33N 35°36' E 139°47'1 0.6
2015-May-25 19:32N 35°36' E 139°46'0 0.0
2015-May-25 18:32N 35°36' E 139°46'0 0.0
2015-May-25 17:32N 35°36' E 139°46'0 0.0
2015-May-25 16:32N 35°36' E 139°46'0 0.0
2015-May-25 15:29N 35°36' E 139°46'0 0.0
2015-May-25 14:32N 35°36' E 139°46'0 0.0
2015-May-25 13:23N 35°36' E 139°46'0 0.0
2015-May-25 12:32N 35°36' E 139°46'0 0.0
2015-May-25 11:29N 35°36' E 139°46'0 0.0
2015-May-25 10:29N 35°36' E 139°46'0 0.0
2015-May-25 09:26N 35°36' E 139°46'0 0.0
2015-May-25 08:32N 35°36' E 139°46'0 0.0
2015-May-25 07:14N 35°36' E 139°46'0 0.0
2015-May-25 06:32N 35°36' E 139°46'0 0.0
2015-May-25 05:26N 35°36' E 139°46'0 0.0
2015-May-25 04:26N 35°36' E 139°46'6 7.1
2015-May-25 03:33N 35°32' E 139°52'1313.3
2015-May-25 02:33N 35°20' E 139°45'1211.7
2015-May-25 01:33N 35°09' E 139°46'1612.9
2015-May-25 00:21N 34°58' E 139°33'1316.6
2015-May-24 23:34N 34°50' E 139°20'  
2015-May-21 16:33N 22°07' E 114°22'1713.3
2015-May-21 15:16N 22°16' E 114°06'811.6
2015-May-21 14:33N 22°21' E 113°59'8 7.9
2015-May-21 13:33N 22°27' E 113°54'1 0.6
2015-May-21 12:28N 22°28' E 113°54'0 0.0
2015-May-21 11:28N 22°28' E 113°54'0 0.0
2015-May-21 10:28N 22°28' E 113°54'0 0.0
2015-May-21 09:28N 22°28' E 113°54'0 0.0
2015-May-21 08:28N 22°28' E 113°54'0 0.0
2015-May-21 07:22N 22°28' E 113°54'0 0.0
2015-May-21 06:28N 22°28' E 113°54'0 0.0
2015-May-21 05:22N 22°28' E 113°54'0 0.0
2015-May-21 04:22N 22°28' E 113°54'0 0.0
2015-May-21 03:23N 22°28' E 113°54'4 4.8
2015-May-21 02:33N 22°24' E 113°54'10 7.7
2015-May-21 01:12N 22°21' E 114°05'3 4.2
2015-May-21 00:33N 22°20' E 114°08'0 0.0
2015-May-20 23:33N 22°20' E 114°08'0 0.0
2015-May-20 22:33N 22°20' E 114°08'0 0.0
2015-May-20 21:33N 22°20' E 114°08'0 0.0
2015-May-20 20:30N 22°20' E 114°08'0 0.0
2015-May-20 19:33N 22°20' E 114°08'0 0.0
2015-May-20 18:33N 22°20' E 114°08'0 0.0
2015-May-20 17:30N 22°20' E 114°08'0 0.0
2015-May-20 16:33N 22°20' E 114°08'0 0.0
2015-May-20 15:33N 22°20' E 114°08'0 0.0
2015-May-20 14:33N 22°20' E 114°08'0 0.0
2015-May-20 13:33N 22°20' E 114°08'0 0.0
2015-May-20 12:30N 22°20' E 114°08'0 0.0
2015-May-20 11:30N 22°20' E 114°08'0 0.0
2015-May-20 10:33N 22°20' E 114°08'0 0.0
2015-May-20 09:33N 22°20' E 114°08'2 1.9
2015-May-20 08:33N 22°19' E 114°06'12 9.8
2015-May-20 07:19N 22°09' E 114°14'912.3
2015-May-20 06:33N 22°08' E 114°24'1817.6
2015-May-20 05:30N 21°50' E 114°19'  

Dump ship's entire track history